Braintree, United Kingdom
Current Conditions -  °F | °C
As of 7:20 AM on Sunday 26 Oct 2014 (Local Time) from EGSS Reporting Station
Clear Clear  
Wind Chill: 52°   Ceiling: Unl
Heat Index: 52°   Visibility: 6mi
Dew Point: 46°   Wind: 10mph
Humidity: 82%   Direction: 210°SSW
Pressure: 30.12"   Gusts: NA
Location:  51.91°N, 0.53°E
Report Text: EGSS 260620Z 21009KT CAVOK 11/08 Q1020
Loading
Personal Weather Stations






























Interactive Weather Map
Tropical Storm Tracking
New forecast layout! Learn more

10-Day Weather Forecast

Advertisements
Track Severe Weather on mobile